Time;durP1;ratioP1;P1;durP2;ratioP2;P2;SDS_P1;SDS_P2;PMS_P1;PMS_P2;Temp;Humidity;BMP_temperature;BMP_pressure;BME280_temperature;BME280_humidity;BME280_pressure;Samples;Min_cycle;Max_cycle;Signal;HPM_P1;HPM_P2
2020/12/24 00:00:25;;;;;;;;;;;11.00;1.00;;;;;;5074803;28;19911;-74
2020/12/24 00:02:54;;;;;;;;;;;11.00;1.00;;;;;;5074388;28;19944;-74
2020/12/24 00:05:20;;;;;;;;;;;10.90;1.00;;;;;;5074481;28;20003;-74
2020/12/24 00:07:49;;;;;;;;;;;10.90;1.00;;;;;;5073516;28;19954;-74
2020/12/24 00:10:15;;;;;;;;;;;10.90;1.00;;;;;;5073965;28;19955;-74
2020/12/24 00:12:41;;;;;;;;;;;10.80;1.00;;;;;;5074111;28;19904;-74
2020/12/24 00:15:07;;;;;;;;;;;10.80;1.00;;;;;;5076597;28;19912;-74
2020/12/24 00:17:33;;;;;;;;;;;10.70;1.00;;;;;;5074144;28;19985;-74
2020/12/24 00:20:18;;;;;;;;;;;10.70;1.00;;;;;;5084998;28;20331;-74
2020/12/24 00:22:44;;;;;;;;;;;10.60;1.00;;;;;;5090194;28;19904;-74
2020/12/24 00:25:19;;;;;;;;;;;10.50;1.00;;;;;;5074165;28;19988;-74
2020/12/24 00:27:44;;;;;;;;;;;10.50;1.00;;;;;;5079699;28;19999;-74
2020/12/24 00:30:10;;;;;;;;;;;10.50;1.00;;;;;;5074264;28;19966;-74
2020/12/24 00:32:36;;;;;;;;;;;10.40;1.00;;;;;;5074200;28;20348;-74
2020/12/24 00:35:03;;;;;;;;;;;10.30;1.00;;;;;;5074221;28;19965;-73
2020/12/24 00:37:37;;;;;;;;;;;10.30;1.00;;;;;;5073756;28;19919;-74
2020/12/24 00:40:03;;;;;;;;;;;10.30;1.00;;;;;;5074052;28;19963;-74
2020/12/24 00:42:29;;;;;;;;;;;10.20;1.00;;;;;;5073966;28;19932;-74
2020/12/24 00:44:54;;;;;;;;;;;10.20;1.00;;;;;;5073908;28;19943;-74
2020/12/24 00:50:30;;;;;;;;;;;10.20;1.00;;;;;;5073798;28;20283;-77
2020/12/24 00:53:00;;;;;;;;;;;10.10;1.00;;;;;;5073515;28;19909;-77
2020/12/24 00:55:26;;;;;;;;;;;10.00;1.00;;;;;;5080806;28;19908;-77
2020/12/24 00:57:52;;;;;;;;;;;10.00;1.00;;;;;;5080949;28;19912;-77
2020/12/24 01:12:36;;;;;;;;;;;10.00;1.00;;;;;;5073588;28;19958;-77
2020/12/24 01:17:56;;;;;;;;;;;10.00;1.00;;;;;;5073618;28;19908;-74
2020/12/24 01:20:21;;;;;;;;;;;9.90;1.00;;;;;;5089638;28;19904;-74
2020/12/24 01:22:49;;;;;;;;;;;9.90;1.00;;;;;;5097744;28;19912;-74
2020/12/24 01:25:14;;;;;;;;;;;9.90;1.00;;;;;;5080421;28;19904;-74
2020/12/24 01:27:40;;;;;;;;;;;9.90;1.00;;;;;;5095898;28;19923;-74
2020/12/24 01:30:06;;;;;;;;;;;9.90;1.00;;;;;;5097658;28;20248;-74
2020/12/24 01:32:31;;;;;;;;;;;9.90;1.00;;;;;;5097674;28;20030;-74
2020/12/24 01:34:57;;;;;;;;;;;9.90;1.00;;;;;;5097285;28;20378;-74
2020/12/24 01:37:22;;;;;;;;;;;9.80;1.00;;;;;;5097358;28;19912;-74
2020/12/24 01:39:48;;;;;;;;;;;9.90;1.00;;;;;;5081949;28;19916;-74
2020/12/24 01:42:17;;;;;;;;;;;9.90;1.00;;;;;;5077159;28;20363;-74
2020/12/24 01:44:54;;;;;;;;;;;9.90;1.00;;;;;;5076974;28;20248;-74
2020/12/24 01:59:32;;;;;;;;;;;9.80;1.00;;;;;;5096879;28;19952;-77
2020/12/24 02:02:02;;;;;;;;;;;9.80;1.00;;;;;;5094896;28;19995;-74
2020/12/24 02:04:31;;;;;;;;;;;9.70;1.00;;;;;;5076772;28;20347;-75
2020/12/24 02:06:56;;;;;;;;;;;9.70;1.00;;;;;;5076572;28;19908;-74
2020/12/24 02:09:24;;;;;;;;;;;9.60;1.00;;;;;;5076443;28;20243;-74
2020/12/24 02:11:50;;;;;;;;;;;9.60;1.00;;;;;;5076649;28;19905;-74
2020/12/24 02:14:25;;;;;;;;;;;9.70;1.00;;;;;;5096311;28;20310;-74
2020/12/24 02:16:55;;;;;;;;;;;9.70;1.00;;;;;;5097135;28;19912;-74
2020/12/24 02:19:25;;;;;;;;;;;9.70;1.00;;;;;;5096531;28;19908;-74
2020/12/24 02:22:01;;;;;;;;;;;9.70;1.00;;;;;;5096685;28;19904;-74
2020/12/24 02:24:27;;;;;;;;;;;9.70;1.00;;;;;;5095158;28;20351;-73
2020/12/24 02:26:55;;;;;;;;;;;9.70;1.00;;;;;;5094674;28;20347;-74
2020/12/24 02:29:21;;;;;;;;;;;9.70;1.00;;;;;;5076329;28;19943;-74
2020/12/24 02:31:49;;;;;;;;;;;9.70;1.00;;;;;;5075715;28;19908;-77
2020/12/24 02:34:14;;;;;;;;;;;9.60;1.00;;;;;;5076063;28;20325;-77
2020/12/24 02:37:12;;;;;;;;;;;9.50;1.00;;;;;;5075930;28;20002;-77
2020/12/24 02:39:38;;;;;;;;;;;9.50;1.00;;;;;;5076025;28;19948;-77
2020/12/24 02:45:07;;;;;;;;;;;9.40;1.00;;;;;;5075805;28;19910;-77
2020/12/24 02:50:54;;;;;;;;;;;9.30;1.00;;;;;;5076068;28;19911;-77
2020/12/24 02:53:36;;;;;;;;;;;9.20;1.00;;;;;;5075573;28;19940;-77
2020/12/24 02:56:18;;;;;;;;;;;9.10;1.00;;;;;;5088046;28;19958;-77
2020/12/24 03:08:18;;;;;;;;;;;9.10;1.00;;;;;;5095468;28;19941;-77
2020/12/24 03:10:48;;;;;;;;;;;9.00;1.00;;;;;;5095123;28;20395;-77
2020/12/24 03:13:25;;;;;;;;;;;9.10;1.00;;;;;;5084303;28;19916;-77
2020/12/24 03:16:07;;;;;;;;;;;9.10;1.00;;;;;;5075421;28;19911;-77
2020/12/24 03:18:37;;;;;;;;;;;9.10;1.00;;;;;;5075609;28;19940;-77
2020/12/24 03:21:13;;;;;;;;;;;9.20;1.00;;;;;;5082454;28;19908;-78
2020/12/24 03:23:43;;;;;;;;;;;9.20;1.00;;;;;;5075417;28;20249;-77
2020/12/24 03:26:13;;;;;;;;;;;9.30;1.00;;;;;;5087120;28;19911;-78
2020/12/24 03:28:43;;;;;;;;;;;9.30;1.00;;;;;;5095462;28;19947;-77
2020/12/24 03:37:25;;;;;;;;;;;9.40;1.00;;;;;;5094905;28;20049;-77
2020/12/24 03:43:18;;;;;;;;;;;9.40;1.00;;;;;;5074614;28;19920;-77
2020/12/24 03:48:47;;;;;;;;;;;9.30;1.00;;;;;;5074836;28;19915;-77
2020/12/24 03:51:12;;;;;;;;;;;9.30;1.00;;;;;;5074857;28;20298;-77
2020/12/24 03:57:12;;;;;;;;;;;9.20;1.00;;;;;;5092065;28;19910;-77
2020/12/24 03:59:55;;;;;;;;;;;9.10;1.00;;;;;;5094662;28;19910;-77
2020/12/24 04:02:25;;;;;;;;;;;9.10;1.00;;;;;;5074646;28;19967;-74
2020/12/24 04:04:50;;;;;;;;;;;9.10;1.00;;;;;;5078725;28;19908;-74
2020/12/24 04:07:25;;;;;;;;;;;9.00;1.00;;;;;;5094374;28;19930;-74
2020/12/24 04:09:50;;;;;;;;;;;8.90;1.00;;;;;;5094648;28;19915;-74
2020/12/24 04:12:25;;;;;;;;;;;8.90;1.00;;;;;;5094712;28;19903;-74
2020/12/24 04:14:50;;;;;;;;;;;8.80;1.00;;;;;;5094417;28;19904;-74
2020/12/24 04:20:19;;;;;;;;;;;8.80;1.00;;;;;;5080461;28;19914;-77
2020/12/24 04:23:06;;;;;;;;;;;8.60;1.00;;;;;;5074103;28;19948;-77
2020/12/24 04:25:43;;;;;;;;;;;8.60;1.00;;;;;;5074074;28;19905;-77
2020/12/24 04:28:42;;;;;;;;;;;8.60;1.00;;;;;;5074646;28;19973;-77
2020/12/24 04:34:13;;;;;;;;;;;8.40;1.00;;;;;;5078151;28;20314;-77
2020/12/24 04:37:00;;;;;;;;;;;8.40;1.00;;;;;;5076510;28;20398;-77
2020/12/24 04:42:55;;;;;;;;;;;8.40;1.00;;;;;;5073584;28;19915;-77
2020/12/24 04:45:38;;;;;;;;;;;8.40;1.00;;;;;;5073969;28;19962;-77
2020/12/24 04:48:04;;;;;;;;;;;8.40;1.00;;;;;;5073941;28;19942;-74
2020/12/24 04:50:38;;;;;;;;;;;8.40;1.00;;;;;;5073707;28;19954;-74
2020/12/24 04:53:03;;;;;;;;;;;8.40;1.00;;;;;;5078336;28;19912;-74
2020/12/24 04:55:29;;;;;;;;;;;8.40;1.00;;;;;;5096344;28;19908;-74
2020/12/24 04:58:01;;;;;;;;;;;8.40;1.00;;;;;;5097847;28;20366;-74
2020/12/24 05:00:31;;;;;;;;;;;8.40;1.00;;;;;;5096210;28;19911;-74
2020/12/24 05:03:25;;;;;;;;;;;8.60;1.00;;;;;;5095412;28;20317;-77
2020/12/24 05:05:57;;;;;;;;;;;8.60;1.00;;;;;;5077708;28;19908;-77
2020/12/24 05:08:49;;;;;;;;;;;8.60;1.00;;;;;;5077270;28;19904;-77
2020/12/24 05:11:14;;;;;;;;;;;8.60;1.00;;;;;;5079272;28;19955;-77
2020/12/24 05:14:00;;;;;;;;;;;8.60;1.00;;;;;;5097494;28;19932;-77
2020/12/24 05:16:30;;;;;;;;;;;8.60;1.00;;;;;;5097739;28;19983;-77
2020/12/24 05:19:10;;;;;;;;;;;8.70;1.00;;;;;;5088794;28;19912;-74
2020/12/24 05:21:38;;;;;;;;;;;8.70;1.00;;;;;;5077012;28;19909;-74
2020/12/24 05:24:20;;;;;;;;;;;8.80;1.00;;;;;;5084795;28;20323;-73
2020/12/24 05:27:06;;;;;;;;;;;8.80;1.00;;;;;;5077179;28;19951;-74
2020/12/24 05:29:38;;;;;;;;;;;8.90;1.00;;;;;;5077083;28;19915;-74
2020/12/24 05:32:04;;;;;;;;;;;8.90;1.00;;;;;;5087399;28;19908;-73
2020/12/24 05:34:31;;;;;;;;;;;8.90;1.00;;;;;;5089735;28;19909;-74
2020/12/24 05:37:24;;;;;;;;;;;8.90;1.00;;;;;;5087548;28;19952;-74
2020/12/24 05:39:50;;;;;;;;;;;9.00;1.00;;;;;;5078277;28;19920;-74
2020/12/24 05:42:16;;;;;;;;;;;9.00;1.00;;;;;;5076590;28;19995;-74
2020/12/24 05:44:41;;;;;;;;;;;9.00;1.00;;;;;;5077723;28;20007;-73
2020/12/24 05:47:07;;;;;;;;;;;9.00;1.00;;;;;;5080480;28;19913;-74
2020/12/24 05:49:33;;;;;;;;;;;9.00;1.00;;;;;;5077993;28;19904;-74
2020/12/24 05:52:07;;;;;;;;;;;9.00;1.00;;;;;;5076652;28;19991;-73
2020/12/24 05:54:49;;;;;;;;;;;8.90;1.00;;;;;;5078002;28;19947;-74
2020/12/24 05:57:16;;;;;;;;;;;8.90;1.00;;;;;;5076686;28;19905;-74
2020/12/24 05:59:42;;;;;;;;;;;8.90;1.00;;;;;;5084011;28;20255;-74
2020/12/24 06:02:14;;;;;;;;;;;8.90;1.00;;;;;;5083890;28;20398;-73
2020/12/24 06:04:43;;;;;;;;;;;8.90;1.00;;;;;;5076739;28;20021;-74
2020/12/24 06:07:09;;;;;;;;;;;8.80;1.00;;;;;;5075363;28;20038;-74
2020/12/24 06:09:38;;;;;;;;;;;8.80;1.00;;;;;;5083197;28;19908;-74
2020/12/24 06:12:20;;;;;;;;;;;8.80;1.00;;;;;;5076110;28;19912;-74
2020/12/24 06:14:53;;;;;;;;;;;8.70;1.00;;;;;;5091209;28;19907;-74
2020/12/24 06:17:19;;;;;;;;;;;8.70;1.00;;;;;;5079189;28;19908;-74
2020/12/24 06:19:45;;;;;;;;;;;8.70;1.00;;;;;;5083021;28;19938;-74
2020/12/24 06:22:11;;;;;;;;;;;8.60;1.00;;;;;;5084470;28;20011;-74
2020/12/24 06:24:44;;;;;;;;;;;8.60;1.00;;;;;;5094320;28;20033;-74
2020/12/24 06:27:30;;;;;;;;;;;8.60;1.00;;;;;;5076183;28;19908;-74
2020/12/24 06:30:04;;;;;;;;;;;8.60;1.00;;;;;;5075880;28;19942;-74
2020/12/24 06:32:33;;;;;;;;;;;8.50;1.00;;;;;;5076063;28;19904;-74
2020/12/24 06:34:59;;;;;;;;;;;8.50;1.00;;;;;;5076336;28;19908;-74
2020/12/24 06:37:24;;;;;;;;;;;8.50;1.00;;;;;;5079829;28;20288;-74
2020/12/24 06:39:51;;;;;;;;;;;8.50;1.00;;;;;;5082105;28;19924;-74
2020/12/24 06:42:43;;;;;;;;;;;8.40;1.00;;;;;;5076041;28;19912;-74
2020/12/24 06:45:43;;;;;;;;;;;8.40;1.00;;;;;;5088708;28;19908;-77
2020/12/24 06:48:12;;;;;;;;;;;8.40;1.00;;;;;;5096108;28;19904;-77
2020/12/24 06:50:49;;;;;;;;;;;8.40;1.00;;;;;;5085577;28;19912;-77
2020/12/24 06:53:26;;;;;;;;;;;8.30;1.00;;;;;;5075822;28;19912;-76
2020/12/24 06:56:10;;;;;;;;;;;8.30;1.00;;;;;;5075370;28;20360;-77
2020/12/24 06:58:55;;;;;;;;;;;8.30;1.00;;;;;;5075597;28;19908;-76
2020/12/24 07:01:37;;;;;;;;;;;8.20;1.00;;;;;;5092372;28;20359;-77
2020/12/24 07:04:13;;;;;;;;;;;8.20;1.00;;;;;;5094677;28;20317;-79
2020/12/24 07:12:52;;;;;;;;;;;8.10;1.00;;;;;;5081297;28;19914;-79
2020/12/24 07:15:25;;;;;;;;;;;8.10;1.00;;;;;;5094876;28;19908;-79
2020/12/24 07:18:13;;;;;;;;;;;8.10;1.00;;;;;;5074666;28;19905;-78
2020/12/24 07:20:58;;;;;;;;;;;8.10;1.00;;;;;;5075613;28;19992;-78
2020/12/24 07:23:48;;;;;;;;;;;8.10;1.00;;;;;;5075177;28;20275;-78
2020/12/24 07:26:25;;;;;;;;;;;8.00;1.00;;;;;;5078409;28;19909;-77
2020/12/24 07:28:56;;;;;;;;;;;8.00;1.00;;;;;;5075757;28;19913;-78
2020/12/24 07:31:55;;;;;;;;;;;8.00;1.00;;;;;;5074716;28;19904;-77
2020/12/24 07:34:30;;;;;;;;;;;8.00;1.00;;;;;;5074854;28;19982;-77
2020/12/24 07:36:56;;;;;;;;;;;8.00;1.00;;;;;;5074861;28;20005;-73
2020/12/24 07:39:21;;;;;;;;;;;8.00;1.00;;;;;;5079455;28;20004;-74
2020/12/24 07:42:01;;;;;;;;;;;8.00;1.00;;;;;;5079149;28;19908;-74
2020/12/24 07:44:26;;;;;;;;;;;8.00;1.00;;;;;;5074364;28;19911;-74
2020/12/24 07:46:52;;;;;;;;;;;8.00;1.00;;;;;;5078183;28;19912;-74
2020/12/24 07:49:25;;;;;;;;;;;8.10;1.00;;;;;;5078258;28;19916;-74
2020/12/24 07:52:01;;;;;;;;;;;8.10;1.00;;;;;;5082232;28;19911;-74
2020/12/24 07:54:31;;;;;;;;;;;8.10;1.00;;;;;;5077676;28;19908;-74
2020/12/24 07:56:57;;;;;;;;;;;8.10;1.00;;;;;;5074480;28;19904;-74
2020/12/24 07:59:23;;;;;;;;;;;8.10;1.00;;;;;;5074250;28;19923;-74
2020/12/24 08:01:49;;;;;;;;;;;8.10;1.00;;;;;;5076533;28;19912;-73
2020/12/24 08:04:15;;;;;;;;;;;8.10;1.00;;;;;;5094668;28;19934;-73
2020/12/24 08:10:08;;;;;;;;;;;8.10;1.00;;;;;;5094661;28;19911;-79
2020/12/24 08:13:07;;;;;;;;;;;8.00;1.00;;;;;;5074012;28;20282;-77
2020/12/24 08:15:44;;;;;;;;;;;8.00;1.00;;;;;;5073582;28;19963;-78
2020/12/24 08:18:13;;;;;;;;;;;8.00;1.00;;;;;;5073701;28;19905;-79
2020/12/24 08:20:49;;;;;;;;;;;8.00;1.00;;;;;;5074633;28;20017;-74
2020/12/24 08:23:17;;;;;;;;;;;8.00;1.00;;;;;;5084583;28;19904;-74
2020/12/24 08:25:52;;;;;;;;;;;8.00;1.00;;;;;;5093980;28;19911;-74
2020/12/24 08:28:18;;;;;;;;;;;8.00;1.00;;;;;;5074582;28;19915;-74
2020/12/24 08:30:45;;;;;;;;;;;8.00;1.00;;;;;;5073184;28;19995;-74
2020/12/24 08:33:31;;;;;;;;;;;8.00;1.00;;;;;;5074185;28;19904;-74
2020/12/24 08:36:10;;;;;;;;;;;8.00;1.00;;;;;;5074046;28;19919;-78
2020/12/24 08:44:42;;;;;;;;;;;8.10;1.00;;;;;;5093897;28;19918;-78
2020/12/24 08:47:25;;;;;;;;;;;;;;;;;;5093978;28;19908;-78
2020/12/24 08:49:55;;;;;;;;;;;8.00;1.00;;;;;;5079084;28;19915;-78
2020/12/24 08:52:25;;;;;;;;;;;8.10;1.00;;;;;;5080110;28;20388;-75
2020/12/24 08:55:07;;;;;;;;;;;8.10;1.00;;;;;;5088426;28;19908;-74
2020/12/24 08:57:33;;;;;;;;;;;8.10;1.00;;;;;;5076199;28;19912;-74
2020/12/24 08:59:59;;;;;;;;;;;8.10;1.00;;;;;;5091942;28;20367;-74
2020/12/24 09:02:32;;;;;;;;;;;8.20;1.00;;;;;;5084070;28;19908;-74
2020/12/24 09:05:02;;;;;;;;;;;8.20;1.00;;;;;;5076925;28;19916;-74
2020/12/24 09:07:29;;;;;;;;;;;8.30;1.00;;;;;;5081863;28;20367;-74
2020/12/24 09:10:07;;;;;;;;;;;8.40;1.00;;;;;;5093749;28;20015;-74
2020/12/24 09:12:54;;;;;;;;;;;8.60;1.00;;;;;;5092616;28;19951;-75
2020/12/24 09:15:31;;;;;;;;;;;8.60;1.00;;;;;;5083513;28;19908;-74
2020/12/24 09:17:57;;;;;;;;;;;8.70;1.00;;;;;;5073159;28;19911;-76
2020/12/24 09:20:31;;;;;;;;;;;8.80;1.00;;;;;;5074206;28;19909;-74
2020/12/24 09:23:14;;;;;;;;;;;8.80;1.00;;;;;;5073947;28;20369;-79
2020/12/24 09:25:55;;;;;;;;;;;8.80;1.00;;;;;;5081020;28;20514;-79
2020/12/24 09:28:49;;;;;;;;;;;8.80;1.00;;;;;;5073164;28;19947;-79
2020/12/24 09:31:19;;;;;;;;;;;8.90;1.00;;;;;;5083504;28;19911;-79
2020/12/24 09:37:07;;;;;;;;;;;8.90;1.00;;;;;;5081584;28;19960;-78
2020/12/24 09:42:43;;;;;;;;;;;8.90;1.00;;;;;;5076822;28;19911;-78
2020/12/24 09:45:27;;;;;;;;;;;8.70;1.00;;;;;;5089096;28;20014;-78
2020/12/24 09:48:25;;;;;;;;;;;8.70;1.00;;;;;;5097285;28;19912;-80
2020/12/24 09:50:55;;;;;;;;;;;8.70;1.00;;;;;;5097228;28;19995;-78
2020/12/24 09:53:43;;;;;;;;;;;8.70;1.00;;;;;;5097004;28;19904;-78
2020/12/24 10:02:43;;;;;;;;;;;8.80;1.00;;;;;;5093844;28;19915;-79
2020/12/24 10:05:25;;;;;;;;;;;8.70;1.00;;;;;;5089381;28;19908;-80
2020/12/24 10:08:07;;;;;;;;;;;8.70;1.00;;;;;;5095240;28;19953;-81
2020/12/24 10:13:55;;;;;;;;;;;8.70;1.00;;;;;;5076199;28;20386;-79
2020/12/24 10:16:26;;;;;;;;;;;8.80;1.00;;;;;;5076301;28;20375;-79
2020/12/24 10:21:55;;;;;;;;;;;8.90;1.00;;;;;;5094536;28;19998;-79
2020/12/24 10:24:25;;;;;;;;;;;8.90;1.00;;;;;;5081507;28;19940;-74
2020/12/24 10:27:07;;;;;;;;;;;8.90;1.00;;;;;;5089358;28;20345;-73
2020/12/24 10:29:37;;;;;;;;;;;8.90;1.00;;;;;;5076156;28;19948;-73
2020/12/24 10:32:19;;;;;;;;;;;8.90;1.00;;;;;;5075991;28;19915;-74
2020/12/24 10:34:45;;;;;;;;;;;9.00;1.00;;;;;;5076159;28;19912;-74
2020/12/24 10:37:10;;;;;;;;;;;9.10;1.00;;;;;;5076269;28;19912;-74
2020/12/24 10:39:36;;;;;;;;;;;9.10;1.00;;;;;;5077796;28;19916;-73
2020/12/24 10:42:07;;;;;;;;;;;9.20;1.00;;;;;;5076477;28;19909;-74
2020/12/24 10:44:33;;;;;;;;;;;9.30;1.00;;;;;;5075919;28;19904;-74
2020/12/24 10:46:59;;;;;;;;;;;9.30;1.00;;;;;;5095308;28;19919;-74
2020/12/24 10:49:27;;;;;;;;;;;9.10;1.00;;;;;;5109138;28;20014;-73
2020/12/24 10:51:55;;;;;;;;;;;9.10;1.00;;;;;;5095558;28;19904;-73
2020/12/24 10:54:21;;;;;;;;;;;9.20;1.00;;;;;;5096057;28;19953;-73
2020/12/24 10:56:47;;;;;;;;;;;9.20;1.00;;;;;;5078737;28;19904;-73
2020/12/24 10:59:13;;;;;;;;;;;9.30;1.00;;;;;;5079170;28;20010;-73
2020/12/24 11:01:43;;;;;;;;;;;9.30;1.00;;;;;;5091439;28;19904;-73
2020/12/24 11:04:09;;;;;;;;;;;9.40;1.00;;;;;;5089767;28;19904;-73
2020/12/24 11:06:34;;;;;;;;;;;9.40;1.00;;;;;;5083685;28;19911;-74
2020/12/24 11:09:01;;;;;;;;;;;9.60;1.00;;;;;;5093469;28;20313;-74
2020/12/24 11:11:27;;;;;;;;;;;9.70;1.00;;;;;;5098135;28;19926;-73
2020/12/24 11:13:53;;;;;;;;;;;9.70;1.00;;;;;;5112770;28;19903;-73
2020/12/24 11:16:26;;;;;;;;;;;9.60;1.00;;;;;;5075461;28;19927;-73
2020/12/24 11:18:53;;;;;;;;;;;9.50;1.00;;;;;;5075300;28;19908;-73
2020/12/24 11:21:25;;;;;;;;;;;9.40;1.00;;;;;;5075208;28;19916;-74
2020/12/24 11:23:55;;;;;;;;;;;9.40;1.00;;;;;;5075559;28;19931;-79
2020/12/24 11:26:25;;;;;;;;;;;9.50;1.00;;;;;;5075167;28;19908;-78
2020/12/24 11:28:55;;;;;;;;;;;9.50;1.00;;;;;;5083027;28;19904;-78
2020/12/24 11:31:26;;;;;;;;;;;9.60;1.00;;;;;;5095262;28;19908;-78
2020/12/24 11:34:29;;;;;;;;;;;9.60;1.00;;;;;;5095254;28;19904;-79
2020/12/24 11:37:25;;;;;;;;;;;9.80;1.00;;;;;;5094951;28;19912;-80
2020/12/24 11:39:50;;;;;;;;;;;9.90;1.00;;;;;;5095486;28;19916;-81
2020/12/24 11:42:25;;;;;;;;;;;9.90;1.00;;;;;;5077069;28;19958;-80
2020/12/24 11:44:55;;;;;;;;;;;9.80;1.00;;;;;;5074594;28;19904;-83
2020/12/24 11:47:25;;;;;;;;;;;9.80;1.00;;;;;;5074711;28;19994;-79
2020/12/24 11:49:50;;;;;;;;;;;9.70;1.00;;;;;;5076883;28;19931;-79
2020/12/24 11:52:25;;;;;;;;;;;9.60;1.00;;;;;;5086410;28;19908;-79
2020/12/24 11:55:25;;;;;;;;;;;9.60;1.00;;;;;;5095003;28;19911;-79
2020/12/24 11:57:55;;;;;;;;;;;9.50;1.00;;;;;;5094633;28;19904;-78
2020/12/24 12:00:25;;;;;;;;;;;9.50;1.00;;;;;;5094545;28;19953;-78
2020/12/24 12:02:55;;;;;;;;;;;9.50;1.00;;;;;;5085612;28;19904;-78
2020/12/24 12:05:55;;;;;;;;;;;9.50;1.00;;;;;;5074378;28;19911;-78
2020/12/24 12:08:25;;;;;;;;;;;9.50;1.00;;;;;;5086888;28;19911;-78
2020/12/24 12:11:02;;;;;;;;;;;9.70;1.00;;;;;;5091006;28;19908;-79
2020/12/24 12:13:55;;;;;;;;;;;9.70;1.00;;;;;;5075652;28;19912;-78
2020/12/24 12:16:25;;;;;;;;;;;9.70;1.00;;;;;;5094293;28;19904;-78
2020/12/24 12:18:55;;;;;;;;;;;9.80;1.00;;;;;;5094416;28;20377;-78
2020/12/24 12:21:37;;;;;;;;;;;9.80;1.00;;;;;;5093611;28;19923;-79
2020/12/24 12:24:07;;;;;;;;;;;9.80;1.00;;;;;;5094741;28;19911;-78
2020/12/24 12:26:37;;;;;;;;;;;9.90;1.00;;;;;;5094312;28;20271;-78
2020/12/24 12:29:09;;;;;;;;;;;10.00;1.00;;;;;;5085645;28;19908;-79
2020/12/24 12:31:37;;;;;;;;;;;10.00;1.00;;;;;;5074029;28;20324;-79
2020/12/24 12:34:07;;;;;;;;;;;10.10;1.00;;;;;;5093671;28;19908;-78
2020/12/24 12:36:37;;;;;;;;;;;10.10;1.00;;;;;;5094016;28;20415;-78
2020/12/24 12:39:07;;;;;;;;;;;10.20;1.00;;;;;;5092782;28;19919;-78
2020/12/24 12:41:37;;;;;;;;;;;10.20;1.00;;;;;;5094065;28;19911;-78
2020/12/24 12:44:07;;;;;;;;;;;10.20;1.00;;;;;;5092269;28;19908;-79
2020/12/24 12:46:37;;;;;;;;;;;10.30;1.00;;;;;;5094052;28;20007;-78
2020/12/24 12:49:13;;;;;;;;;;;10.30;1.00;;;;;;5093936;28;20329;-78
2020/12/24 12:51:43;;;;;;;;;;;10.30;1.00;;;;;;5094137;28;19908;-79
2020/12/24 12:54:13;;;;;;;;;;;10.30;1.00;;;;;;5094477;28;19908;-75
2020/12/24 12:56:43;;;;;;;;;;;10.30;1.00;;;;;;5078037;28;19946;-75
2020/12/24 12:59:09;;;;;;;;;;;10.40;1.00;;;;;;5084650;28;19916;-76
2020/12/24 13:01:35;;;;;;;;;;;10.50;1.00;;;;;;5093812;28;19970;-76
2020/12/24 13:04:01;;;;;;;;;;;10.50;1.00;;;;;;5092949;28;20343;-75
2020/12/24 13:06:26;;;;;;;;;;;10.60;1.00;;;;;;5093781;28;19946;-76
2020/12/24 13:08:52;;;;;;;;;;;10.70;1.00;;;;;;5093637;28;20002;-76
2020/12/24 13:11:17;;;;;;;;;;;10.80;1.00;;;;;;5093771;28;19944;-76
2020/12/24 13:13:43;;;;;;;;;;;10.90;1.00;;;;;;5092703;28;19903;-74
2020/12/24 13:16:09;;;;;;;;;;;10.90;1.00;;;;;;5095407;28;19911;-75
2020/12/24 13:18:35;;;;;;;;;;;11.10;1.00;;;;;;5095301;28;19915;-75
2020/12/24 13:21:01;;;;;;;;;;;11.10;1.00;;;;;;5077517;28;19905;-75
2020/12/24 13:23:37;;;;;;;;;;;11.20;1.00;;;;;;5077331;28;19904;-78
2020/12/24 13:26:25;;;;;;;;;;;11.30;1.00;;;;;;5079961;28;19912;-78
2020/12/24 13:28:55;;;;;;;;;;;11.40;1.00;;;;;;5096536;28;19904;-78
2020/12/24 13:31:21;;;;;;;;;;;11.40;1.00;;;;;;5077274;28;19911;-79
2020/12/24 13:33:56;;;;;;;;;;;11.50;1.00;;;;;;5077061;28;19905;-79
2020/12/24 13:36:25;;;;;;;;;;;11.50;1.00;;;;;;5076739;28;20351;-79
2020/12/24 13:38:51;;;;;;;;;;;11.50;1.00;;;;;;5077674;28;19951;-74
2020/12/24 13:41:17;;;;;;;;;;;11.50;1.00;;;;;;5077067;28;19931;-74
2020/12/24 13:43:43;;;;;;;;;;;11.50;1.00;;;;;;5076985;28;19947;-75
2020/12/24 13:46:10;;;;;;;;;;;11.50;1.00;;;;;;5076951;28;20267;-74
2020/12/24 13:48:36;;;;;;;;;;;11.50;1.00;;;;;;5076531;28;19915;-74
2020/12/24 13:51:13;;;;;;;;;;;11.40;1.00;;;;;;5076642;28;20263;-74
2020/12/24 13:53:43;;;;;;;;;;;11.20;1.00;;;;;;5088744;28;19962;-74
2020/12/24 13:56:13;;;;;;;;;;;11.10;1.00;;;;;;5089893;28;19912;-74
2020/12/24 13:58:39;;;;;;;;;;;10.90;1.00;;;;;;5096750;28;19916;-74
2020/12/24 14:01:07;;;;;;;;;;;10.90;1.00;;;;;;5087740;28;19914;-74
2020/12/24 14:03:37;;;;;;;;;;;10.80;1.00;;;;;;5076348;28;19904;-74
2020/12/24 14:06:03;;;;;;;;;;;10.80;1.00;;;;;;5076772;28;19911;-74
2020/12/24 14:08:29;;;;;;;;;;;10.80;1.00;;;;;;5090025;28;19907;-74
2020/12/24 14:14:19;;;;;;;;;;;10.70;1.00;;;;;;5076219;28;19919;-78
2020/12/24 14:16:49;;;;;;;;;;;10.60;1.00;;;;;;5080462;28;20002;-77
2020/12/24 14:19:15;;;;;;;;;;;10.60;1.00;;;;;;5078372;28;20298;-78
2020/12/24 14:21:44;;;;;;;;;;;10.40;1.00;;;;;;5076272;28;19957;-78
2020/12/24 14:24:13;;;;;;;;;;;10.40;1.00;;;;;;5095984;28;19938;-73
2020/12/24 14:26:39;;;;;;;;;;;10.30;1.00;;;;;;5089462;28;19912;-74
2020/12/24 14:29:05;;;;;;;;;;;10.10;1.00;;;;;;5075459;28;20348;-73
2020/12/24 14:31:31;;;;;;;;;;;9.40;1.00;;;;;;5075888;28;19915;-74
2020/12/24 14:33:56;;;;;;;;;;;9.40;1.00;;;;;;5075903;28;19909;-73
2020/12/24 14:36:22;;;;;;;;;;;8.80;1.00;;;;;;5078888;28;19919;-73
2020/12/24 14:38:48;;;;;;;;;;;8.70;1.00;;;;;;5084243;28;19916;-73
2020/12/24 14:41:31;;;;;;;;;;;8.50;1.00;;;;;;5076365;28;19904;-79
2020/12/24 14:44:13;;;;;;;;;;;8.00;1.00;;;;;;5075991;28;20042;-82
2020/12/24 14:46:44;;;;;;;;;;;8.00;1.00;;;;;;5075891;28;19954;-81
2020/12/24 14:49:13;;;;;;;;;;;7.80;1.00;;;;;;5076144;28;19908;-83
2020/12/24 14:51:58;;;;;;;;;;;7.70;1.00;;;;;;5074648;28;19961;-80
2020/12/24 14:54:37;;;;;;;;;;;7.50;1.00;;;;;;5075816;28;19910;-81
2020/12/24 14:57:25;;;;;;;;;;;7.30;1.00;;;;;;5075854;28;19991;-75
2020/12/24 15:00:02;;;;;;;;;;;7.30;1.00;;;;;;5086974;28;19962;-75
2020/12/24 15:02:49;;;;;;;;;;;7.20;1.00;;;;;;5096072;28;19911;-74
2020/12/24 15:05:14;;;;;;;;;;;7.00;1.00;;;;;;5083641;28;19909;-75
2020/12/24 15:07:43;;;;;;;;;;;6.90;1.00;;;;;;5082249;28;20020;-74
2020/12/24 15:13:12;;;;;;;;;;;6.80;1.00;;;;;;5095433;28;19911;-79
2020/12/24 15:15:49;;;;;;;;;;;6.70;1.00;;;;;;5095669;28;19904;-80
2020/12/24 15:18:31;;;;;;;;;;;6.60;1.00;;;;;;5075352;28;19908;-80
2020/12/24 15:20:57;;;;;;;;;;;6.60;1.00;;;;;;5095498;28;19908;-80
2020/12/24 15:26:43;;;;;;;;;;;6.60;1.00;;;;;;5095789;28;19915;-79
2020/12/24 15:29:19;;;;;;;;;;;6.70;1.00;;;;;;5095345;28;19908;-77
2020/12/24 15:31:49;;;;;;;;;;;6.70;1.00;;;;;;5095313;28;20351;-77
2020/12/24 15:34:19;;;;;;;;;;;6.70;1.00;;;;;;5091036;28;19908;-80
2020/12/24 15:36:47;;;;;;;;;;;6.60;1.00;;;;;;5074757;28;19912;-77
2020/12/24 15:39:13;;;;;;;;;;;6.40;1.00;;;;;;5074610;28;19998;-77
2020/12/24 15:41:46;;;;;;;;;;;6.40;1.00;;;;;;5075378;28;19999;-75
2020/12/24 15:44:12;;;;;;;;;;;6.30;1.00;;;;;;5075117;28;19905;-75
2020/12/24 15:46:37;;;;;;;0.95;0.60;;;6.40;1.00;;;;;;5079665;28;20967;-74
2020/12/24 15:49:03;;;;;;;1.10;0.80;;;6.50;1.00;;;;;;5103422;28;20174;-75
2020/12/24 15:51:31;;;;;;;0.90;0.70;;;6.50;1.00;;;;;;5092679;28;20257;-75
2020/12/24 15:53:57;;;;;;;2.03;1.30;;;6.50;1.00;;;;;;5094783;28;20154;-75
2020/12/24 15:56:27;;;;;;;0.50;0.50;;;6.50;1.00;;;;;;5083917;28;20422;-80
2020/12/24 16:09:49;;;;;;;0.50;0.50;;;6.40;1.00;;;;;;5106965;28;20437;-79
2020/12/24 16:12:31;;;;;;;1.30;0.60;;;6.30;1.00;;;;;;5073171;28;20852;-75
2020/12/24 16:15:03;;;;;;;0.83;0.50;;;6.20;1.00;;;;;;5074181;28;20394;-76
2020/12/24 16:17:29;;;;;;;0.50;0.50;;;6.30;1.00;;;;;;5082333;28;20416;-75
2020/12/24 16:19:55;;;;;;;0.50;0.50;;;6.20;1.00;;;;;;5090724;28;20854;-74
2020/12/24 16:22:25;;;;;;;0.80;0.70;;;6.30;1.00;;;;;;5075233;28;20626;-75
2020/12/24 16:25:07;;;;;;;0.70;0.70;;;6.30;1.00;;;;;;5104683;28;20403;-75
2020/12/24 16:27:37;;;;;;;1.23;0.70;;;6.20;1.00;;;;;;5095431;28;20174;-75
2020/12/24 16:30:04;;;;;;;0.70;0.70;;;6.30;1.00;;;;;;5085095;28;20795;-74
2020/12/24 16:32:31;;;;;;;1.40;1.30;;;6.40;1.00;;;;;;5078144;28;20429;-75
2020/12/24 16:35:05;;;;;;;12.27;8.07;;;6.40;1.00;;;;;;5092219;28;20416;-78
2020/12/24 16:37:43;;;;;;;0.70;0.70;;;6.50;1.00;;;;;;5081911;28;20437;-80
2020/12/24 16:40:31;;;;;;;0.50;0.50;;;6.50;1.00;;;;;;5078549;28;21018;-80
2020/12/24 16:42:57;;;;;;;0.63;0.63;;;6.60;1.00;;;;;;5092478;28;20430;-75
2020/12/24 16:45:24;;;;;;;1.67;1.30;;;6.60;1.00;;;;;;5085469;28;20456;-74
2020/12/24 16:47:50;;;;;;;27.20;14.70;;;;;;;;;;5087178;28;20227;-75
2020/12/24 16:50:25;;;;;;;1.07;0.90;;;6.60;1.00;;;;;;5094775;28;20417;-74
2020/12/24 16:53:08;;;;;;;4.20;0.70;;;6.40;1.00;;;;;;5078772;28;20425;-75
2020/12/24 16:55:33;;;;;;;0.90;0.83;;;6.50;1.00;;;;;;5075127;28;20546;-75
2020/12/24 16:58:01;;;;;;;0.83;0.80;;;6.50;1.00;;;;;;5079069;28;20428;-80
2020/12/24 17:00:32;;;;;;;55.00;30.60;;;6.50;1.00;;;;;;5076667;28;21046;-80
2020/12/24 17:03:02;;;;;;;1.13;0.93;;;6.40;1.00;;;;;;5073215;28;20989;-81
2020/12/24 17:05:31;;;;;;;1.67;1.37;;;6.40;1.00;;;;;;5079349;28;20456;-81
2020/12/24 17:08:01;;;;;;;1.98;1.40;;;6.40;1.00;;;;;;5084047;28;21017;-80